createdAt,value
2019-04-28T00:00:53.905Z,5.67
2019-04-28T00:03:22.771Z,5.70
2019-04-28T00:05:51.402Z,5.30
2019-04-28T00:08:20.796Z,5.40
2019-04-28T00:10:53.120Z,5.90
2019-04-28T00:13:20.918Z,6.90
2019-04-28T00:15:49.219Z,6.40
2019-04-28T00:18:17.668Z,5.87
2019-04-28T00:21:05.566Z,6.07
2019-04-28T00:23:51.724Z,7.30
2019-04-28T00:26:42.615Z,7.67
2019-04-28T00:29:11.211Z,7.37
2019-04-28T00:31:41.373Z,7.23
2019-04-28T00:34:11.467Z,7.10
2019-04-28T00:36:43.144Z,7.43
2019-04-28T00:39:11.947Z,7.93
2019-04-28T00:41:42.090Z,7.40
2019-04-28T00:44:12.028Z,6.93
2019-04-28T00:46:42.214Z,7.60
2019-04-28T00:49:11.893Z,7.30
2019-04-28T00:51:41.509Z,7.10
2019-04-28T00:54:12.135Z,7.53
2019-04-28T00:56:41.804Z,7.23
2019-04-28T00:59:11.797Z,8.07
2019-04-28T01:01:51.309Z,7.73
2019-04-28T01:04:21.961Z,7.23
2019-04-28T01:06:51.983Z,7.20
2019-04-28T01:09:21.976Z,7.27
2019-04-28T01:11:51.099Z,5.83
2019-04-28T01:14:21.328Z,6.93
2019-04-28T01:16:57.362Z,6.87
2019-04-28T01:19:30.144Z,6.20
2019-04-28T01:22:12.686Z,6.90
2019-04-28T01:24:41.699Z,6.83
2019-04-28T01:27:45.348Z,6.43
2019-04-28T01:30:21.144Z,6.93
2019-04-28T01:32:56.500Z,6.77
2019-04-28T01:35:25.059Z,6.43
2019-04-28T01:37:53.851Z,6.00
2019-04-28T01:40:22.436Z,6.50
2019-04-28T01:42:51.128Z,6.50
2019-04-28T01:45:20.587Z,5.60
2019-04-28T01:47:50.431Z,5.93
2019-04-28T01:50:20.516Z,6.27
2019-04-28T01:52:49.644Z,5.50
2019-04-28T01:55:20.279Z,5.00
2019-04-28T01:57:49.787Z,5.60
2019-04-28T02:00:25.304Z,4.83
2019-04-28T02:02:50.612Z,5.43
2019-04-28T02:05:19.719Z,5.13
2019-04-28T02:07:50.374Z,5.57
2019-04-28T02:10:20.202Z,5.00
2019-04-28T02:12:50.324Z,5.07
2019-04-28T02:15:20.205Z,5.63
2019-04-28T02:17:49.992Z,5.07
2019-04-28T02:20:20.432Z,4.97
2019-04-28T02:22:54.982Z,4.67
2019-04-28T02:25:23.515Z,5.70
2019-04-28T02:27:51.652Z,5.50
2019-04-28T02:30:22.630Z,5.13
2019-04-28T02:32:51.905Z,5.60
2019-04-28T02:35:21.490Z,5.70
2019-04-28T02:37:50.673Z,4.87
2019-04-28T02:40:20.719Z,4.93
2019-04-28T02:42:51.904Z,4.70
2019-04-28T02:45:21.805Z,4.63
2019-04-28T02:47:52.599Z,4.50
2019-04-28T02:50:41.126Z,5.03
2019-04-28T02:53:15.791Z,5.23
2019-04-28T02:55:44.287Z,4.60
2019-04-28T02:58:13.454Z,5.13
2019-04-28T03:01:00.387Z,5.30
2019-04-28T03:03:12.550Z,5.10
2019-04-28T03:05:41.369Z,4.67
2019-04-28T03:08:11.129Z,5.20
2019-04-28T03:10:40.972Z,6.00
2019-04-28T03:13:13.081Z,5.67
2019-04-28T03:15:41.669Z,5.70
2019-04-28T03:18:11.487Z,5.47
2019-04-28T03:20:41.900Z,6.40
2019-04-28T03:23:12.428Z,5.60
2019-04-28T03:26:03.135Z,6.30
2019-04-28T03:29:04.324Z,5.93
2019-04-28T03:32:16.469Z,5.87
2019-04-28T03:34:43.573Z,5.43
2019-04-28T03:37:11.497Z,5.23
2019-04-28T03:39:40.653Z,6.30
2019-04-28T03:42:11.449Z,5.80
2019-04-28T03:44:41.442Z,6.10
2019-04-28T03:47:10.742Z,5.50
2019-04-28T03:49:40.581Z,5.77
2019-04-28T03:52:10.725Z,6.03
2019-04-28T03:54:40.951Z,5.87
2019-04-28T03:57:11.442Z,5.13
2019-04-28T03:59:41.316Z,5.50
2019-04-28T04:02:11.310Z,5.07
2019-04-28T04:04:41.444Z,5.47
2019-04-28T04:07:11.052Z,5.73
2019-04-28T04:09:51.516Z,5.57
2019-04-28T04:12:30.734Z,5.30
2019-04-28T04:15:04.475Z,4.37
2019-04-28T04:17:36.821Z,4.87
2019-04-28T04:20:06.388Z,5.17
2019-04-28T04:22:35.279Z,5.40
2019-04-28T04:25:04.292Z,5.53
2019-04-28T04:27:32.938Z,4.80
2019-04-28T04:30:01.924Z,4.70
2019-04-28T04:32:33.866Z,5.17
2019-04-28T04:35:00.993Z,5.63
2019-04-28T04:37:30.822Z,5.30
2019-04-28T04:40:01.198Z,5.43
2019-04-28T04:42:30.636Z,5.47
2019-04-28T04:45:00.560Z,5.27
2019-04-28T04:47:32.477Z,5.20
2019-04-28T04:50:00.335Z,4.97
2019-04-28T04:52:30.443Z,5.13
2019-04-28T04:55:01.260Z,5.97
2019-04-28T04:57:32.365Z,4.97
2019-04-28T05:00:01.727Z,5.50
2019-04-28T05:02:55.955Z,5.93
2019-04-28T05:05:33.944Z,5.87
2019-04-28T05:08:02.156Z,5.77
2019-04-28T05:10:30.817Z,5.67
2019-04-28T05:13:00.207Z,5.47
2019-04-28T05:15:30.324Z,5.90
2019-04-28T05:18:00.199Z,6.20
2019-04-28T05:20:30.272Z,5.17
2019-04-28T05:23:09.620Z,6.07
2019-04-28T05:25:40.762Z,5.77
2019-04-28T05:28:10.431Z,5.90
2019-04-28T05:30:42.723Z,6.60
2019-04-28T05:33:11.861Z,5.90
2019-04-28T05:35:40.430Z,6.27
2019-04-28T05:38:09.946Z,7.13
2019-04-28T05:40:39.845Z,6.87
2019-04-28T05:43:10.597Z,6.00
2019-04-28T05:45:39.691Z,6.10
2019-04-28T05:48:11.141Z,6.00
2019-04-28T05:51:01.821Z,7.63
2019-04-28T05:53:40.362Z,7.27
2019-04-28T05:56:21.755Z,7.07
2019-04-28T05:58:53.555Z,6.70
2019-04-28T06:01:42.253Z,5.67
2019-04-28T06:04:11.244Z,5.93
2019-04-28T06:06:42.358Z,5.77
2019-04-28T06:09:26.464Z,6.53
2019-04-28T06:11:54.718Z,5.73
2019-04-28T06:14:24.749Z,5.93
2019-04-28T06:16:53.029Z,6.03
2019-04-28T06:19:21.163Z,6.20
2019-04-28T06:21:49.701Z,5.27
2019-04-28T06:24:18.023Z,5.90
2019-04-28T06:26:46.714Z,5.87
2019-04-28T06:29:14.839Z,5.80
2019-04-28T06:31:43.327Z,6.30
2019-04-28T06:34:11.616Z,6.30
2019-04-28T06:36:40.270Z,6.87
2019-04-28T06:39:09.013Z,6.40
2019-04-28T06:41:37.378Z,6.90
2019-04-28T06:44:05.592Z,6.20
2019-04-28T06:46:33.873Z,6.43
2019-04-28T06:49:02.420Z,6.27
2019-04-28T06:51:30.661Z,6.60
2019-04-28T06:53:58.802Z,6.27
2019-04-28T06:56:26.997Z,6.00
2019-04-28T06:58:59.311Z,6.33
2019-04-28T07:01:25.437Z,6.73
2019-04-28T07:03:54.039Z,6.77
2019-04-28T07:06:22.313Z,6.27
2019-04-28T07:08:50.548Z,6.97
2019-04-28T07:11:19.782Z,6.33
2019-04-28T07:13:48.023Z,6.83
2019-04-28T07:16:16.260Z,7.23
2019-04-28T07:18:48.920Z,7.37
2019-04-28T07:21:42.651Z,7.00
2019-04-28T07:24:11.334Z,7.43
2019-04-28T07:26:39.721Z,7.10
2019-04-28T07:29:08.306Z,6.87
2019-04-28T07:31:36.577Z,7.23
2019-04-28T07:34:05.100Z,7.77
2019-04-28T07:36:33.307Z,7.93
2019-04-28T07:39:01.837Z,8.73
2019-04-28T07:41:30.032Z,8.70
2019-04-28T07:43:58.333Z,8.10
2019-04-28T07:46:26.482Z,7.43
2019-04-28T07:48:55.014Z,7.63
2019-04-28T07:51:25.853Z,8.63
2019-04-28T07:54:02.214Z,8.40
2019-04-28T07:56:28.881Z,8.10
2019-04-28T07:58:57.076Z,7.80
2019-04-28T08:01:25.752Z,7.30
2019-04-28T08:03:54.136Z,8.40
2019-04-28T08:06:22.288Z,8.33
2019-04-28T08:08:50.461Z,8.17
2019-04-28T08:11:18.593Z,9.07
2019-04-28T08:13:46.864Z,8.40
2019-04-28T08:16:15.046Z,8.63
2019-04-28T08:18:43.748Z,8.77
2019-04-28T08:21:11.889Z,9.43
2019-04-28T08:23:46.972Z,9.13
2019-04-28T08:26:10.889Z,9.40
2019-04-28T08:28:39.664Z,9.70
2019-04-28T08:31:09.811Z,9.23
2019-04-28T08:33:44.220Z,8.43
2019-04-28T08:36:12.710Z,9.03
2019-04-28T08:38:41.640Z,9.10
2019-04-28T08:41:10.104Z,9.60
2019-04-28T08:43:38.600Z,9.77
2019-04-28T08:46:06.785Z,9.17
2019-04-28T08:48:34.962Z,9.10
2019-04-28T08:51:03.387Z,9.63
2019-04-28T08:53:31.908Z,9.07
2019-04-28T08:56:00.067Z,9.57
2019-04-28T08:58:28.238Z,9.17
2019-04-28T09:00:57.243Z,9.33
2019-04-28T09:03:25.538Z,9.57
2019-04-28T09:05:54.283Z,10.30
2019-04-28T09:08:22.520Z,10.47
2019-04-28T09:10:50.805Z,9.47
2019-04-28T09:13:19.040Z,10.10
2019-04-28T09:15:47.264Z,9.63
2019-04-28T09:18:15.449Z,9.13
2019-04-28T09:20:43.712Z,8.40
2019-04-28T09:23:11.977Z,9.37
2019-04-28T09:25:40.197Z,9.07
2019-04-28T09:28:08.571Z,9.40
2019-04-28T09:30:36.999Z,8.90
2019-04-28T09:33:05.161Z,8.10
2019-04-28T09:35:33.900Z,9.07
2019-04-28T09:38:02.075Z,9.80
2019-04-28T09:40:30.528Z,9.80
2019-04-28T09:43:30.371Z,10.53
2019-04-28T09:46:23.995Z,9.60
2019-04-28T09:48:52.381Z,9.60
2019-04-28T09:51:20.840Z,10.20
2019-04-28T09:53:49.290Z,9.00
2019-04-28T09:56:17.756Z,7.53
2019-04-28T09:58:46.431Z,6.53
2019-04-28T10:01:14.749Z,6.40
2019-04-28T10:03:43.556Z,5.70
2019-04-28T10:06:12.254Z,6.40
2019-04-28T10:08:40.460Z,7.00
2019-04-28T10:11:09.433Z,7.53
2019-04-28T10:13:38.140Z,2.70
2019-04-28T10:16:20.405Z,4.37
2019-04-28T10:18:49.196Z,6.27
2019-04-28T10:21:19.112Z,6.37
2019-04-28T10:23:47.516Z,7.30
2019-04-28T10:26:17.160Z,6.70
2019-04-28T10:28:45.436Z,6.10
2019-04-28T10:31:13.969Z,5.47
2019-04-28T10:33:46.375Z,6.20
2019-04-28T10:36:15.907Z,5.00
2019-04-28T10:38:46.211Z,5.10
2019-04-28T10:41:35.893Z,5.30
2019-04-28T10:44:04.172Z,5.50
2019-04-28T10:46:32.947Z,5.70
2019-04-28T10:49:02.255Z,5.80
2019-04-28T10:51:30.451Z,5.73
2019-04-28T10:53:58.879Z,6.07
2019-04-28T10:56:27.149Z,4.60
2019-04-28T10:58:57.862Z,5.83
2019-04-28T11:01:26.314Z,6.07
2019-04-28T11:03:57.848Z,5.87
2019-04-28T11:06:26.269Z,5.70
2019-04-28T11:09:05.376Z,5.67
2019-04-28T11:11:33.575Z,5.67
2019-04-28T11:14:03.344Z,5.80
2019-04-28T11:16:35.601Z,6.40
2019-04-28T11:19:04.934Z,5.67
2019-04-28T11:21:33.551Z,7.10
2019-04-28T11:24:02.031Z,7.17
2019-04-28T11:26:30.587Z,6.50
2019-04-28T11:28:59.281Z,6.30
2019-04-28T11:31:27.433Z,6.50
2019-04-28T11:34:13.923Z,6.10
2019-04-28T11:36:42.782Z,6.00
2019-04-28T11:39:14.499Z,6.40
2019-04-28T11:41:43.190Z,6.13
2019-04-28T11:44:11.745Z,5.60
2019-04-28T11:46:40.006Z,6.20
2019-04-28T11:49:08.291Z,7.40
2019-04-28T11:51:36.628Z,5.50
2019-04-28T11:54:04.850Z,6.73
2019-04-28T11:56:41.140Z,6.13
2019-04-28T11:59:04.250Z,6.40
2019-04-28T12:01:33.481Z,6.50
2019-04-28T12:04:04.009Z,5.27
2019-04-28T12:06:32.256Z,5.10
2019-04-28T12:09:16.611Z,4.80
2019-04-28T12:11:47.984Z,5.53
2019-04-28T12:14:36.108Z,5.33
2019-04-28T12:17:22.398Z,5.17
2019-04-28T12:19:54.042Z,5.40
2019-04-28T12:22:22.611Z,5.83
2019-04-28T12:24:50.860Z,5.50
2019-04-28T12:27:19.139Z,4.47
2019-04-28T12:29:47.360Z,4.30
2019-04-28T12:32:15.585Z,3.70
2019-04-28T12:34:43.716Z,4.20
2019-04-28T12:37:12.029Z,4.40
2019-04-28T12:39:40.174Z,4.63
2019-04-28T12:42:08.302Z,3.63
2019-04-28T12:44:36.936Z,4.03
2019-04-28T12:47:05.075Z,4.37
2019-04-28T12:49:43.562Z,3.27
2019-04-28T12:52:13.739Z,3.60
2019-04-28T12:54:44.613Z,3.43
2019-04-28T12:57:12.488Z,3.20
2019-04-28T12:59:49.271Z,2.87
2019-04-28T13:02:52.056Z,3.00
2019-04-28T13:05:20.794Z,2.50
2019-04-28T13:07:48.982Z,2.80
2019-04-28T13:10:17.129Z,2.50
2019-04-28T13:12:45.548Z,1.97
2019-04-28T13:15:14.004Z,2.10
2019-04-28T13:17:42.686Z,1.80
2019-04-28T13:20:11.377Z,1.93
2019-04-28T13:22:40.127Z,2.03
2019-04-28T13:25:08.791Z,1.83
2019-04-28T13:27:36.935Z,1.90
2019-04-28T13:30:05.962Z,2.13
2019-04-28T13:32:34.990Z,2.07
2019-04-28T13:35:04.405Z,1.50
2019-04-28T13:37:32.712Z,1.60
2019-04-28T13:40:05.254Z,1.93
2019-04-28T13:42:33.457Z,1.60
2019-04-28T13:45:11.376Z,1.80
2019-04-28T13:47:40.246Z,1.63
2019-04-28T13:50:33.213Z,1.60
2019-04-28T13:53:01.475Z,1.80
2019-04-28T13:56:04.565Z,2.00
2019-04-28T13:58:51.923Z,1.70
2019-04-28T14:01:45.535Z,2.00
2019-04-28T14:04:36.045Z,1.57
2019-04-28T14:07:05.846Z,1.80
2019-04-28T14:09:34.093Z,1.83
2019-04-28T14:12:02.250Z,1.87
2019-04-28T14:14:30.818Z,1.67
2019-04-28T14:16:59.644Z,1.67
2019-04-28T14:19:28.081Z,1.77
2019-04-28T14:21:56.251Z,1.50
2019-04-28T14:24:24.793Z,1.77
2019-04-28T14:26:53.790Z,1.60
2019-04-28T14:29:22.168Z,1.70
2019-04-28T14:31:50.634Z,1.80
2019-04-28T14:34:19.202Z,1.30
2019-04-28T14:36:47.473Z,1.87
2019-04-28T14:39:16.400Z,1.80
2019-04-28T14:41:44.736Z,1.50
2019-04-28T14:44:13.087Z,1.67
2019-04-28T14:46:41.615Z,1.60
2019-04-28T14:49:09.758Z,1.53
2019-04-28T14:51:38.026Z,1.50
2019-04-28T14:54:06.635Z,2.00
2019-04-28T14:56:34.996Z,1.30
2019-04-28T14:59:04.194Z,1.50
2019-04-28T15:02:07.622Z,1.50
2019-04-28T15:05:10.970Z,1.93
2019-04-28T15:07:58.917Z,1.47
2019-04-28T15:10:33.746Z,1.73
2019-04-28T15:13:02.591Z,1.63
2019-04-28T15:15:30.861Z,3.93
2019-04-28T15:17:59.753Z,5.03
2019-04-28T15:20:27.911Z,4.73
2019-04-28T15:22:56.635Z,4.83
2019-04-28T15:25:25.217Z,5.73
2019-04-28T15:27:53.393Z,6.10
2019-04-28T15:30:22.298Z,5.50
2019-04-28T15:32:50.472Z,6.93
2019-04-28T15:35:18.691Z,6.77
2019-04-28T15:37:46.858Z,6.80
2019-04-28T15:40:15.455Z,6.80
2019-04-28T15:42:44.694Z,6.80
2019-04-28T15:45:13.444Z,7.23
2019-04-28T15:47:41.953Z,7.60
2019-04-28T15:50:10.511Z,6.23
2019-04-28T15:52:38.852Z,6.10
2019-04-28T15:55:09.125Z,6.17
2019-04-28T15:57:37.268Z,6.17
2019-04-28T16:00:08.804Z,5.80
2019-04-28T16:02:37.217Z,5.53
2019-04-28T16:05:05.730Z,5.97
2019-04-28T16:07:34.587Z,5.57
2019-04-28T16:10:03.382Z,5.73
2019-04-28T16:12:31.608Z,5.97
2019-04-28T16:15:00.238Z,4.70
2019-04-28T16:17:28.748Z,4.97
2019-04-28T16:19:56.934Z,5.03
2019-04-28T16:22:25.554Z,5.17
2019-04-28T16:24:53.761Z,5.47
2019-04-28T16:27:22.251Z,4.90
2019-04-28T16:29:50.721Z,4.70
2019-04-28T16:32:19.002Z,4.63
2019-04-28T16:34:47.786Z,4.83
2019-04-28T16:37:15.983Z,4.93
2019-04-28T16:39:44.164Z,4.83
2019-04-28T16:42:23.574Z,4.77
2019-04-28T16:45:03.281Z,5.20
2019-04-28T16:47:31.795Z,4.23
2019-04-28T16:50:00.076Z,4.70
2019-04-28T16:52:28.638Z,4.10
2019-04-28T16:55:16.170Z,4.73
2019-04-28T16:57:59.693Z,4.93
2019-04-28T17:00:56.821Z,4.73
2019-04-28T17:03:27.242Z,6.03
2019-04-28T17:05:55.710Z,5.50
2019-04-28T17:08:23.852Z,5.67
2019-04-28T17:10:52.801Z,4.93
2019-04-28T17:13:20.938Z,4.77
2019-04-28T17:15:49.114Z,5.33
2019-04-28T17:18:17.480Z,4.27
2019-04-28T17:20:46.392Z,4.10
2019-04-28T17:23:14.660Z,4.27
2019-04-28T17:25:42.977Z,4.73
2019-04-28T17:28:11.404Z,4.50
2019-04-28T17:30:39.590Z,3.97
2019-04-28T17:33:08.172Z,4.40
2019-04-28T17:35:37.190Z,4.27
2019-04-28T17:38:06.638Z,3.30
2019-04-28T17:40:36.151Z,3.23
2019-04-28T17:43:06.763Z,4.03
2019-04-28T17:45:35.109Z,3.40
2019-04-28T17:48:12.784Z,3.43
2019-04-28T17:50:41.083Z,3.43
2019-04-28T17:53:09.690Z,3.70
2019-04-28T17:55:38.198Z,3.80
2019-04-28T17:58:06.360Z,3.80
2019-04-28T18:00:47.288Z,3.80
2019-04-28T18:03:29.297Z,3.60
2019-04-28T18:06:17.595Z,3.87
2019-04-28T18:08:37.991Z,3.97
2019-04-28T18:11:06.192Z,3.83
2019-04-28T18:13:35.338Z,3.30
2019-04-28T18:16:32.435Z,4.27
2019-04-28T18:19:04.255Z,4.23
2019-04-28T18:21:32.712Z,4.33
2019-04-28T18:24:00.908Z,4.30
2019-04-28T18:26:29.337Z,4.33
2019-04-28T18:28:58.364Z,4.33
2019-04-28T18:31:43.259Z,4.37
2019-04-28T18:34:20.807Z,3.90
2019-04-28T18:36:58.575Z,3.83
2019-04-28T18:39:45.475Z,3.77
2019-04-28T18:42:26.426Z,4.23
2019-04-28T18:44:54.820Z,4.53
2019-04-28T18:47:23.506Z,4.17
2019-04-28T18:49:52.367Z,4.23
2019-04-28T18:52:20.508Z,4.47
2019-04-28T18:54:49.346Z,4.50
2019-04-28T18:57:17.540Z,5.27
2019-04-28T18:59:46.068Z,5.60
2019-04-28T19:02:42.881Z,5.20
2019-04-28T19:05:12.772Z,5.47
2019-04-28T19:08:15.630Z,5.07
2019-04-28T19:10:52.896Z,4.93
2019-04-28T19:13:24.701Z,5.80
2019-04-28T19:16:05.065Z,5.47
2019-04-28T19:18:36.001Z,5.23
2019-04-28T19:21:04.179Z,4.70
2019-04-28T19:23:32.471Z,5.50
2019-04-28T19:26:00.892Z,5.50
2019-04-28T19:28:29.029Z,6.23
2019-04-28T19:30:57.638Z,6.17
2019-04-28T19:33:25.969Z,5.37
2019-04-28T19:35:54.455Z,7.17
2019-04-28T19:38:23.699Z,6.87
2019-04-28T19:40:52.088Z,6.63
2019-04-28T19:43:21.076Z,6.80
2019-04-28T19:45:51.273Z,6.20
2019-04-28T19:48:19.456Z,6.67
2019-04-28T19:50:48.105Z,6.53
2019-04-28T19:53:16.373Z,6.63
2019-04-28T19:55:51.986Z,6.93
2019-04-28T19:58:34.662Z,6.43
2019-04-28T20:01:18.202Z,6.80
2019-04-28T20:03:46.951Z,6.87
2019-04-28T20:06:15.115Z,7.40
2019-04-28T20:08:43.381Z,7.10
2019-04-28T20:11:12.080Z,6.70
2019-04-28T20:13:40.617Z,7.33
2019-04-28T20:16:08.976Z,7.10
2019-04-28T20:18:37.228Z,4.87
2019-04-28T20:21:05.603Z,5.57
2019-04-28T20:23:33.738Z,5.30
2019-04-28T20:26:02.105Z,5.53
2019-04-28T20:28:30.253Z,5.63
2019-04-28T20:30:58.998Z,5.60
2019-04-28T20:33:27.485Z,4.63
2019-04-28T20:36:00.008Z,5.20
2019-04-28T20:38:32.168Z,5.00
2019-04-28T20:41:26.027Z,5.13
2019-04-28T20:43:55.148Z,3.90
2019-04-28T20:46:23.408Z,4.03
2019-04-28T20:48:51.951Z,4.23
2019-04-28T20:51:20.380Z,4.50
2019-04-28T20:53:48.670Z,4.00
2019-04-28T20:56:16.948Z,4.23
2019-04-28T20:58:45.220Z,3.87
2019-04-28T21:01:13.385Z,4.43
2019-04-28T21:03:42.181Z,4.10
2019-04-28T21:06:10.352Z,4.63
2019-04-28T21:08:38.776Z,4.53
2019-04-28T21:11:06.956Z,4.27
2019-04-28T21:13:35.669Z,4.17
2019-04-28T21:16:03.956Z,4.10
2019-04-28T21:18:32.133Z,4.97
2019-04-28T21:21:00.329Z,4.10
2019-04-28T21:23:28.847Z,4.37
2019-04-28T21:25:56.980Z,3.50
2019-04-28T21:28:25.197Z,4.17
2019-04-28T21:30:53.503Z,3.87
2019-04-28T21:33:21.955Z,4.07
2019-04-28T21:35:50.346Z,3.97
2019-04-28T21:38:18.764Z,3.80
2019-04-28T21:40:47.668Z,4.57
2019-04-28T21:43:35.982Z,4.50
2019-04-28T21:46:16.158Z,4.00
2019-04-28T21:48:58.615Z,3.67
2019-04-28T21:51:27.237Z,3.40
2019-04-28T21:53:56.025Z,4.07
2019-04-28T21:56:24.711Z,3.63
2019-04-28T21:58:52.834Z,3.50
2019-04-28T22:01:22.770Z,4.20
2019-04-28T22:03:50.964Z,3.63
2019-04-28T22:06:19.815Z,3.93
2019-04-28T22:08:47.992Z,3.80
2019-04-28T22:11:16.214Z,4.00
2019-04-28T22:13:44.910Z,4.60
2019-04-28T22:16:13.563Z,5.10
2019-04-28T22:18:41.737Z,4.63
2019-04-28T22:21:09.886Z,4.60
2019-04-28T22:23:51.893Z,4.90
2019-04-28T22:26:38.248Z,5.03
2019-04-28T22:29:06.413Z,5.27
2019-04-28T22:31:34.959Z,5.30
2019-04-28T22:34:03.389Z,5.10
2019-04-28T22:36:32.100Z,5.43
2019-04-28T22:39:00.589Z,4.60
2019-04-28T22:41:29.553Z,4.47
2019-04-28T22:43:57.768Z,4.83
2019-04-28T22:46:26.176Z,4.27
2019-04-28T22:48:56.639Z,4.80
2019-04-28T22:51:24.792Z,4.70
2019-04-28T22:53:53.252Z,4.87
2019-04-28T22:56:35.102Z,4.07
2019-04-28T22:59:09.610Z,4.30
2019-04-28T23:01:41.025Z,4.77
2019-04-28T23:04:25.775Z,4.93
2019-04-28T23:06:54.023Z,4.63
2019-04-28T23:09:22.775Z,4.53
2019-04-28T23:11:51.241Z,4.57
2019-04-28T23:14:19.498Z,4.93
2019-04-28T23:16:48.113Z,4.60
2019-04-28T23:19:18.141Z,4.97
2019-04-28T23:22:04.879Z,5.00
2019-04-28T23:24:33.757Z,4.30
2019-04-28T23:27:02.349Z,4.80
2019-04-28T23:29:30.795Z,4.57
2019-04-28T23:32:00.428Z,4.03
2019-04-28T23:34:28.925Z,3.83
2019-04-28T23:36:57.413Z,4.23
2019-04-28T23:39:25.747Z,4.93
2019-04-28T23:41:59.708Z,4.13
2019-04-28T23:44:27.916Z,4.90
2019-04-28T23:46:57.725Z,5.17
2019-04-28T23:49:28.175Z,5.10
2019-04-28T23:52:09.417Z,5.00
2019-04-28T23:54:39.619Z,5.03
2019-04-28T23:57:07.796Z,4.60
2019-04-28T23:59:36.128Z,5.10
